International Virtual Aviation Organisation

Eastern Europe and Northern Asia MCD

 
UUEE 200930Z 09008MPS 060V130 CAVOK 09/M04 Q1019 R06C/CLRD62 R06L/CLRD62 NOSIG
QNH:(hPa/inHg/mmHg)1019 / 30.09 / 764
QFE:(hPa/inHg/mmHg)996 / 29.40 / 747
Temperature9
Dew Point-4
Visibility> 10000
WeatherCAVOK
Cloud Cover
Transition Altitude10000 ft.
Transition LevelFL110
SQUAWK